ITY7875 LIPZ-EDDP
Flight info
| Callsign | ITY7875 |
|---|---|
| Flight time | 1h 5m |
| Altitude | 34000 |
| Route | ROKIB8X/04R ROKIB DCT GIKEB DCT EKPEB DCT BRENO DCT KONIN DCT ERNAS M726 LASGA T953 VOCIM/N0457F350 T954 GOXLI GOXLI1V |
| Aircraft | A320/M-SDE3FGHIRWY/LB1 |
Departure
| Time | 2026-05-06 14:01 |
|---|---|
| Airport | Venice Marco Polo Airport (LIPZ) |
Arrival
| Time | 2026-05-06 15:06 |
|---|---|
| Airport | Leipzig/Halle Airport (EDDP) |
| Time | Latitude | Longitude | Altitude | Speed | Heading |
|---|---|---|---|---|---|
| 2026-05-06 13:39 | 45.50311 | 12.34166 | 17 ft | 0 kts | 312° |
| 2026-05-06 13:51 | 45.50304 | 12.34177 | 16 ft | 4 kts | 311° |
| 2026-05-06 13:51 | 45.50286 | 12.34206 | 16 ft | 4 kts | 308° |
| 2026-05-06 13:51 | 45.50270 | 12.34237 | 17 ft | 4 kts | 302° |
| 2026-05-06 13:52 | 45.50258 | 12.34271 | 16 ft | 4 kts | 286° |
| 2026-05-06 13:52 | 45.50256 | 12.34303 | 17 ft | 3 kts | 230° |
| 2026-05-06 13:52 | 45.50262 | 12.34311 | 16 ft | 0 kts | 222° |
| 2026-05-06 13:54 | 45.50237 | 12.34279 | 17 ft | 13 kts | 221° |
| 2026-05-06 13:54 | 45.50147 | 12.34166 | 16 ft | 20 kts | 221° |
| 2026-05-06 13:55 | 45.50026 | 12.34063 | 15 ft | 18 kts | 185° |
| 2026-05-06 13:55 | 45.49976 | 12.34062 | 14 ft | 3 kts | 179° |
| 2026-05-06 13:55 | 45.49920 | 12.34055 | 14 ft | 13 kts | 198° |
| 2026-05-06 13:55 | 45.49826 | 12.33954 | 14 ft | 22 kts | 221° |
| 2026-05-06 13:56 | 45.49695 | 12.33787 | 16 ft | 28 kts | 221° |
| 2026-05-06 13:56 | 45.49588 | 12.33650 | 16 ft | 12 kts | 223° |
| 2026-05-06 13:56 | 45.49513 | 12.33608 | 18 ft | 13 kts | 161° |
| 2026-05-06 13:56 | 45.49499 | 12.33621 | 16 ft | 0 kts | 143° |
| 2026-05-06 13:58 | 45.49499 | 12.33622 | 16 ft | 1 kts | 143° |
| 2026-05-06 13:59 | 45.49483 | 12.33641 | 16 ft | 6 kts | 137° |
| 2026-05-06 13:59 | 45.49441 | 12.33704 | 15 ft | 12 kts | 131° |
| 2026-05-06 13:59 | 45.49450 | 12.33820 | 16 ft | 16 kts | 47° |
| 2026-05-06 13:59 | 45.49473 | 12.33851 | 14 ft | 0 kts | 42° |
| 2026-05-06 14:00 | 45.49476 | 12.33855 | 14 ft | 5 kts | 42° |
| 2026-05-06 14:00 | 45.49638 | 12.34062 | 13 ft | 68 kts | 43° |
| 2026-05-06 14:00 | 45.50157 | 12.34730 | 16 ft | 131 kts | 42° |
| 2026-05-06 14:00 | 45.50955 | 12.35739 | 167 ft | 163 kts | 40° |
| 2026-05-06 14:01 | 45.51790 | 12.36787 | 828 ft | 161 kts | 45° |
| 2026-05-06 14:01 | 45.52679 | 12.37802 | 1517 ft | 171 kts | 38° |
| 2026-05-06 14:01 | 45.53558 | 12.39073 | 1912 ft | 190 kts | 70° |
| 2026-05-06 14:01 | 45.53761 | 12.40997 | 2374 ft | 206 kts | 98° |
| 2026-05-06 14:02 | 45.53473 | 12.43035 | 3083 ft | 213 kts | 104° |
| 2026-05-06 14:02 | 45.53208 | 12.45138 | 3795 ft | 218 kts | 102° |
| 2026-05-06 14:02 | 45.52968 | 12.47297 | 4455 ft | 222 kts | 102° |
| 2026-05-06 14:02 | 45.52731 | 12.49493 | 5016 ft | 226 kts | 105° |
| 2026-05-06 14:03 | 45.52067 | 12.51481 | 5565 ft | 222 kts | 137° |
| 2026-05-06 14:03 | 45.50826 | 12.52677 | 6164 ft | 214 kts | 166° |
| 2026-05-06 14:03 | 45.49399 | 12.52869 | 6751 ft | 208 kts | 192° |
| 2026-05-06 14:03 | 45.48038 | 12.52238 | 7338 ft | 206 kts | 203° |
| 2026-05-06 14:04 | 45.46811 | 12.51202 | 7939 ft | 207 kts | 228° |
| 2026-05-06 14:04 | 45.46191 | 12.49356 | 8429 ft | 218 kts | 260° |
| 2026-05-06 14:04 | 45.46423 | 12.47080 | 8626 ft | 248 kts | 282° |
| 2026-05-06 14:04 | 45.46955 | 12.44619 | 8974 ft | 270 kts | 284° |
| 2026-05-06 14:05 | 45.47542 | 12.42032 | 9642 ft | 278 kts | 284° |
| 2026-05-06 14:05 | 45.48149 | 12.39374 | 10167 ft | 292 kts | 284° |
| 2026-05-06 14:05 | 45.48793 | 12.36504 | 10433 ft | 315 kts | 283° |
| 2026-05-06 14:05 | 45.49455 | 12.33511 | 10946 ft | 325 kts | 283° |
| 2026-05-06 14:06 | 45.50136 | 12.30414 | 11651 ft | 330 kts | 283° |
| 2026-05-06 14:06 | 45.50824 | 12.27266 | 12401 ft | 335 kts | 283° |
| 2026-05-06 14:06 | 45.51520 | 12.24068 | 13080 ft | 340 kts | 282° |
| 2026-05-06 14:06 | 45.52221 | 12.20826 | 13849 ft | 345 kts | 282° |
| 2026-05-06 14:07 | 45.52931 | 12.17542 | 14598 ft | 349 kts | 282° |
| 2026-05-06 14:07 | 45.53658 | 12.14214 | 15298 ft | 351 kts | 282° |
| 2026-05-06 14:07 | 45.54390 | 12.10878 | 15959 ft | 354 kts | 282° |
| 2026-05-06 14:07 | 45.55124 | 12.07514 | 16619 ft | 357 kts | 282° |
| 2026-05-06 14:08 | 45.55854 | 12.04153 | 17264 ft | 361 kts | 282° |
| 2026-05-06 14:08 | 45.56601 | 12.00723 | 17874 ft | 364 kts | 282° |
| 2026-05-06 14:08 | 45.57610 | 11.97358 | 18418 ft | 375 kts | 294° |
| 2026-05-06 14:08 | 45.59162 | 11.94302 | 18963 ft | 386 kts | 307° |
| 2026-05-06 14:09 | 45.61203 | 11.91754 | 19513 ft | 397 kts | 320° |
| 2026-05-06 14:09 | 45.63634 | 11.89852 | 20064 ft | 405 kts | 329° |
| 2026-05-06 14:09 | 45.66204 | 11.88109 | 20622 ft | 407 kts | 329° |
| 2026-05-06 14:09 | 45.68765 | 11.86362 | 21164 ft | 410 kts | 328° |
| 2026-05-06 14:10 | 45.71344 | 11.84597 | 21711 ft | 412 kts | 328° |
| 2026-05-06 14:10 | 45.73906 | 11.82830 | 22253 ft | 415 kts | 328° |
| 2026-05-06 14:10 | 45.76518 | 11.81019 | 22728 ft | 420 kts | 327° |
| 2026-05-06 14:10 | 45.79159 | 11.79187 | 23209 ft | 423 kts | 327° |
| 2026-05-06 14:11 | 45.81816 | 11.77347 | 23665 ft | 426 kts | 327° |
| 2026-05-06 14:11 | 45.84497 | 11.75493 | 24094 ft | 429 kts | 327° |
| 2026-05-06 14:11 | 45.87196 | 11.73621 | 24525 ft | 432 kts | 327° |
| 2026-05-06 14:11 | 45.89900 | 11.71748 | 24949 ft | 434 kts | 327° |
| 2026-05-06 14:12 | 45.92659 | 11.69919 | 25374 ft | 440 kts | 332° |
| 2026-05-06 14:12 | 45.95617 | 11.68610 | 25736 ft | 451 kts | 341° |
| 2026-05-06 14:12 | 45.98672 | 11.67735 | 26083 ft | 456 kts | 342° |
| 2026-05-06 14:12 | 46.01791 | 11.66846 | 26496 ft | 458 kts | 342° |
| 2026-05-06 14:13 | 46.04931 | 11.65944 | 26852 ft | 460 kts | 342° |
| 2026-05-06 14:13 | 46.08073 | 11.65034 | 27231 ft | 463 kts | 342° |
| 2026-05-06 14:13 | 46.11247 | 11.64112 | 27598 ft | 466 kts | 342° |
| 2026-05-06 14:13 | 46.14431 | 11.63186 | 27947 ft | 469 kts | 342° |
| 2026-05-06 14:14 | 46.17639 | 11.62252 | 28282 ft | 471 kts | 341° |
| 2026-05-06 14:14 | 46.20859 | 11.61316 | 28552 ft | 473 kts | 341° |
| 2026-05-06 14:14 | 46.24097 | 11.60375 | 28845 ft | 476 kts | 341° |
| 2026-05-06 14:14 | 46.27355 | 11.59429 | 29108 ft | 478 kts | 341° |
| 2026-05-06 14:15 | 46.30616 | 11.58482 | 29414 ft | 480 kts | 341° |
| 2026-05-06 14:15 | 46.33854 | 11.57540 | 29670 ft | 481 kts | 341° |
| 2026-05-06 14:15 | 46.37139 | 11.56583 | 29937 ft | 483 kts | 341° |
| 2026-05-06 14:15 | 46.40447 | 11.55615 | 30163 ft | 485 kts | 341° |
| 2026-05-06 14:16 | 46.43758 | 11.54644 | 30347 ft | 485 kts | 341° |
| 2026-05-06 14:16 | 46.47066 | 11.53672 | 30538 ft | 486 kts | 341° |
| 2026-05-06 14:16 | 46.50384 | 11.52696 | 30767 ft | 488 kts | 341° |
| 2026-05-06 14:16 | 46.53713 | 11.51714 | 30995 ft | 489 kts | 341° |
| 2026-05-06 14:17 | 46.57055 | 11.50723 | 31191 ft | 491 kts | 341° |
| 2026-05-06 14:17 | 46.60403 | 11.49733 | 31422 ft | 491 kts | 341° |
| 2026-05-06 14:17 | 46.63747 | 11.48751 | 31689 ft | 491 kts | 341° |
| 2026-05-06 14:17 | 46.67049 | 11.47780 | 31996 ft | 489 kts | 341° |
| 2026-05-06 14:18 | 46.70379 | 11.46792 | 32348 ft | 487 kts | 340° |
| 2026-05-06 14:18 | 46.73687 | 11.45759 | 32657 ft | 485 kts | 340° |
| 2026-05-06 14:18 | 46.76978 | 11.44683 | 32902 ft | 485 kts | 339° |
| 2026-05-06 14:18 | 46.80264 | 11.43579 | 33191 ft | 485 kts | 339° |
| 2026-05-06 14:19 | 46.83551 | 11.42464 | 33499 ft | 484 kts | 339° |
| 2026-05-06 14:19 | 46.86829 | 11.41358 | 33795 ft | 484 kts | 339° |
| 2026-05-06 14:19 | 46.93332 | 11.39208 | 33843 ft | 475 kts | 339° |
| 2026-05-06 14:20 | 46.99821 | 11.37655 | 33816 ft | 483 kts | 351° |
| 2026-05-06 14:20 | 47.06570 | 11.37580 | 33820 ft | 486 kts | 353° |
| 2026-05-06 14:21 | 47.13320 | 11.37525 | 33762 ft | 485 kts | 353° |
| 2026-05-06 14:21 | 47.20080 | 11.37462 | 33752 ft | 485 kts | 353° |
| 2026-05-06 14:22 | 47.26789 | 11.37401 | 33769 ft | 485 kts | 353° |
| 2026-05-06 14:22 | 47.33544 | 11.37326 | 33766 ft | 485 kts | 353° |
| 2026-05-06 14:23 | 47.40302 | 11.37250 | 33766 ft | 485 kts | 353° |
| 2026-05-06 14:23 | 47.47049 | 11.37184 | 33765 ft | 484 kts | 353° |
| 2026-05-06 14:24 | 47.53777 | 11.37124 | 33742 ft | 483 kts | 353° |
| 2026-05-06 14:24 | 47.60496 | 11.37052 | 33757 ft | 483 kts | 353° |
| 2026-05-06 14:25 | 47.67172 | 11.36984 | 33777 ft | 482 kts | 354° |
| 2026-05-06 14:25 | 47.73887 | 11.36927 | 33762 ft | 482 kts | 354° |
| 2026-05-06 14:26 | 47.80581 | 11.36855 | 33752 ft | 481 kts | 354° |
| 2026-05-06 14:26 | 47.87251 | 11.36562 | 33777 ft | 476 kts | 348° |
| 2026-05-06 14:27 | 47.93810 | 11.35581 | 33783 ft | 477 kts | 348° |
| 2026-05-06 14:27 | 48.00409 | 11.34606 | 33775 ft | 477 kts | 348° |
| 2026-05-06 14:28 | 48.07014 | 11.33626 | 33772 ft | 477 kts | 348° |
| 2026-05-06 14:28 | 48.13618 | 11.32643 | 33775 ft | 477 kts | 348° |
| 2026-05-06 14:29 | 48.20207 | 11.31666 | 33771 ft | 476 kts | 348° |
| 2026-05-06 14:29 | 48.26809 | 11.30679 | 33768 ft | 476 kts | 348° |
| 2026-05-06 14:30 | 48.33361 | 11.29699 | 33762 ft | 476 kts | 348° |
| 2026-05-06 14:30 | 48.39953 | 11.28702 | 33754 ft | 476 kts | 348° |
| 2026-05-06 14:31 | 48.46541 | 11.27709 | 33790 ft | 476 kts | 348° |
| 2026-05-06 14:31 | 48.53136 | 11.26715 | 33792 ft | 476 kts | 348° |
| 2026-05-06 14:32 | 48.59715 | 11.25728 | 33781 ft | 475 kts | 348° |
| 2026-05-06 14:32 | 48.66236 | 11.24733 | 33768 ft | 473 kts | 348° |
| 2026-05-06 14:33 | 48.72781 | 11.23732 | 33752 ft | 473 kts | 348° |
| 2026-05-06 14:33 | 48.79328 | 11.22726 | 33760 ft | 472 kts | 348° |
| 2026-05-06 14:34 | 48.85885 | 11.21935 | 33763 ft | 476 kts | 355° |
| 2026-05-06 14:34 | 48.92519 | 11.21970 | 33766 ft | 476 kts | 355° |
| 2026-05-06 14:35 | 48.99118 | 11.22008 | 33780 ft | 476 kts | 355° |
| 2026-05-06 14:35 | 49.05705 | 11.22052 | 33789 ft | 475 kts | 355° |
| 2026-05-06 14:36 | 49.12299 | 11.22102 | 33786 ft | 473 kts | 355° |
| 2026-05-06 14:36 | 49.18884 | 11.22140 | 33783 ft | 472 kts | 355° |
| 2026-05-06 14:37 | 49.25410 | 11.22188 | 33781 ft | 472 kts | 355° |
| 2026-05-06 14:37 | 49.31968 | 11.22231 | 33775 ft | 471 kts | 355° |
| 2026-05-06 14:38 | 49.38522 | 11.22274 | 33780 ft | 471 kts | 355° |
| 2026-05-06 14:38 | 49.45088 | 11.22333 | 33814 ft | 472 kts | 359° |
| 2026-05-06 14:39 | 49.48344 | 11.23141 | 33809 ft | 478 kts | 15° |
| 2026-05-06 14:39 | 49.51438 | 11.25077 | 33789 ft | 481 kts | 22° |
| 2026-05-06 14:39 | 49.57527 | 11.29372 | 33785 ft | 485 kts | 22° |
| 2026-05-06 14:40 | 49.63626 | 11.33770 | 33774 ft | 484 kts | 23° |
| 2026-05-06 14:40 | 49.69723 | 11.38190 | 33772 ft | 483 kts | 23° |
| 2026-05-06 14:41 | 49.75804 | 11.42609 | 33775 ft | 483 kts | 23° |
| 2026-05-06 14:41 | 49.81886 | 11.47045 | 33773 ft | 483 kts | 23° |
| 2026-05-06 14:42 | 49.87933 | 11.51456 | 33774 ft | 483 kts | 23° |
| 2026-05-06 14:42 | 49.94016 | 11.55900 | 33767 ft | 483 kts | 23° |
| 2026-05-06 14:43 | 50.00098 | 11.60352 | 33774 ft | 484 kts | 23° |
| 2026-05-06 14:43 | 50.03140 | 11.62585 | 33437 ft | 481 kts | 23° |
| 2026-05-06 14:43 | 50.06154 | 11.64799 | 32888 ft | 477 kts | 23° |
| 2026-05-06 14:44 | 50.09144 | 11.67000 | 32361 ft | 473 kts | 24° |
| 2026-05-06 14:44 | 50.12107 | 11.69186 | 31862 ft | 469 kts | 24° |
| 2026-05-06 14:44 | 50.15041 | 11.71363 | 31379 ft | 465 kts | 24° |
| 2026-05-06 14:45 | 50.20828 | 11.75657 | 30465 ft | 456 kts | 24° |
| 2026-05-06 14:45 | 50.23646 | 11.77741 | 30027 ft | 452 kts | 25° |
| 2026-05-06 14:45 | 50.26472 | 11.79840 | 29540 ft | 448 kts | 25° |
| 2026-05-06 14:45 | 50.29275 | 11.81930 | 29039 ft | 444 kts | 25° |
| 2026-05-06 14:46 | 50.32055 | 11.84005 | 28543 ft | 440 kts | 25° |
| 2026-05-06 14:46 | 50.34797 | 11.86051 | 28059 ft | 436 kts | 25° |
| 2026-05-06 14:46 | 50.37527 | 11.88086 | 27591 ft | 432 kts | 25° |
| 2026-05-06 14:46 | 50.40220 | 11.90097 | 27151 ft | 428 kts | 25° |
| 2026-05-06 14:47 | 50.42918 | 11.92114 | 26693 ft | 424 kts | 25° |
| 2026-05-06 14:47 | 50.45549 | 11.94083 | 26249 ft | 420 kts | 25° |
| 2026-05-06 14:47 | 50.48173 | 11.96051 | 25823 ft | 417 kts | 25° |
| 2026-05-06 14:47 | 50.50776 | 11.98008 | 25397 ft | 413 kts | 25° |
| 2026-05-06 14:48 | 50.53325 | 11.99925 | 24983 ft | 410 kts | 25° |
| 2026-05-06 14:48 | 50.55882 | 12.01849 | 24571 ft | 406 kts | 25° |
| 2026-05-06 14:48 | 50.58416 | 12.03763 | 24157 ft | 403 kts | 25° |
| 2026-05-06 14:48 | 50.60935 | 12.05667 | 23740 ft | 399 kts | 26° |
| 2026-05-06 14:49 | 50.63427 | 12.07558 | 23335 ft | 396 kts | 26° |
| 2026-05-06 14:49 | 50.65901 | 12.09441 | 22851 ft | 393 kts | 26° |
| 2026-05-06 14:49 | 50.68353 | 12.11303 | 22383 ft | 390 kts | 25° |
| 2026-05-06 14:49 | 50.70793 | 12.13148 | 21937 ft | 387 kts | 25° |
| 2026-05-06 14:50 | 50.73201 | 12.14968 | 21553 ft | 382 kts | 25° |
| 2026-05-06 14:50 | 50.75593 | 12.16781 | 21128 ft | 379 kts | 25° |
| 2026-05-06 14:50 | 50.77958 | 12.18583 | 20707 ft | 377 kts | 25° |
| 2026-05-06 14:50 | 50.80317 | 12.20382 | 20271 ft | 375 kts | 25° |
| 2026-05-06 14:51 | 50.82657 | 12.22163 | 19850 ft | 373 kts | 25° |
| 2026-05-06 14:51 | 50.84988 | 12.23942 | 19431 ft | 371 kts | 25° |
| 2026-05-06 14:51 | 50.87304 | 12.25715 | 19025 ft | 369 kts | 25° |
| 2026-05-06 14:51 | 50.89610 | 12.27478 | 18624 ft | 367 kts | 25° |
| 2026-05-06 14:52 | 50.91910 | 12.29240 | 18236 ft | 365 kts | 25° |
| 2026-05-06 14:52 | 50.94188 | 12.30989 | 17820 ft | 364 kts | 25° |
| 2026-05-06 14:52 | 50.96459 | 12.32735 | 17394 ft | 362 kts | 25° |
| 2026-05-06 14:52 | 50.98722 | 12.34478 | 16986 ft | 360 kts | 25° |
| 2026-05-06 14:53 | 51.00962 | 12.36201 | 16597 ft | 357 kts | 25° |
| 2026-05-06 14:53 | 51.03162 | 12.37896 | 16186 ft | 355 kts | 25° |
| 2026-05-06 14:53 | 51.05382 | 12.39609 | 15802 ft | 353 kts | 25° |
| 2026-05-06 14:53 | 51.07588 | 12.41311 | 15433 ft | 351 kts | 25° |
| 2026-05-06 14:54 | 51.09775 | 12.43002 | 15065 ft | 349 kts | 25° |
| 2026-05-06 14:54 | 51.11970 | 12.44695 | 14573 ft | 352 kts | 25° |
| 2026-05-06 14:54 | 51.14176 | 12.46396 | 14090 ft | 353 kts | 25° |
| 2026-05-06 14:54 | 51.16391 | 12.48112 | 13616 ft | 355 kts | 25° |
| 2026-05-06 14:55 | 51.18611 | 12.49838 | 13090 ft | 356 kts | 25° |
| 2026-05-06 14:55 | 51.20839 | 12.51572 | 12563 ft | 356 kts | 25° |
| 2026-05-06 14:55 | 51.23037 | 12.53280 | 12040 ft | 356 kts | 25° |
| 2026-05-06 14:55 | 51.25289 | 12.55033 | 11529 ft | 355 kts | 25° |
| 2026-05-06 14:56 | 51.27483 | 12.56738 | 11031 ft | 354 kts | 25° |
| 2026-05-06 14:56 | 51.29722 | 12.58483 | 10530 ft | 353 kts | 25° |
| 2026-05-06 14:56 | 51.31893 | 12.60178 | 10051 ft | 352 kts | 25° |
| 2026-05-06 14:56 | 51.34069 | 12.61877 | 9798 ft | 343 kts | 25° |
| 2026-05-06 14:57 | 51.36185 | 12.63530 | 9461 ft | 337 kts | 25° |
| 2026-05-06 14:57 | 51.38292 | 12.65184 | 8940 ft | 337 kts | 25° |
| 2026-05-06 14:57 | 51.40394 | 12.66844 | 8420 ft | 336 kts | 25° |
| 2026-05-06 14:57 | 51.42485 | 12.68493 | 7914 ft | 335 kts | 25° |
| 2026-05-06 14:58 | 51.44578 | 12.70147 | 7409 ft | 334 kts | 25° |
| 2026-05-06 14:58 | 51.46656 | 12.71788 | 6921 ft | 332 kts | 25° |
| 2026-05-06 14:58 | 51.48731 | 12.73407 | 6425 ft | 330 kts | 22° |
| 2026-05-06 14:58 | 51.50936 | 12.74236 | 5940 ft | 324 kts | 359° |
| 2026-05-06 14:59 | 51.53070 | 12.73588 | 5591 ft | 302 kts | 333° |
| 2026-05-06 14:59 | 51.54675 | 12.71721 | 5337 ft | 274 kts | 306° |
| 2026-05-06 14:59 | 51.55485 | 12.69121 | 5089 ft | 261 kts | 278° |
| 2026-05-06 14:59 | 51.55412 | 12.66274 | 4840 ft | 256 kts | 251° |
| 2026-05-06 15:00 | 51.54758 | 12.63607 | 4587 ft | 255 kts | 242° |
| 2026-05-06 15:00 | 51.53644 | 12.61493 | 4331 ft | 246 kts | 213° |
| 2026-05-06 15:00 | 51.52069 | 12.60595 | 4074 ft | 240 kts | 189° |
| 2026-05-06 15:00 | 51.50426 | 12.60346 | 3823 ft | 234 kts | 185° |
| 2026-05-06 15:01 | 51.48815 | 12.60181 | 3569 ft | 229 kts | 185° |
| 2026-05-06 15:01 | 51.47228 | 12.60034 | 3310 ft | 229 kts | 186° |
| 2026-05-06 15:01 | 51.45739 | 12.59258 | 3070 ft | 224 kts | 218° |
| 2026-05-06 15:01 | 51.44839 | 12.57369 | 2983 ft | 209 kts | 251° |
| 2026-05-06 15:02 | 51.44634 | 12.55175 | 3042 ft | 195 kts | 265° |
| 2026-05-06 15:02 | 51.44542 | 12.53048 | 2999 ft | 189 kts | 265° |
| 2026-05-06 15:02 | 51.44451 | 12.50968 | 2998 ft | 187 kts | 265° |
| 2026-05-06 15:02 | 51.44359 | 12.48887 | 3006 ft | 186 kts | 265° |
| 2026-05-06 15:03 | 51.44268 | 12.46833 | 2891 ft | 187 kts | 265° |
| 2026-05-06 15:03 | 51.44176 | 12.44750 | 2682 ft | 187 kts | 265° |
| 2026-05-06 15:03 | 51.44083 | 12.42667 | 2445 ft | 187 kts | 266° |
| 2026-05-06 15:03 | 51.43991 | 12.40592 | 2200 ft | 187 kts | 266° |
| 2026-05-06 15:04 | 51.43901 | 12.38592 | 1978 ft | 169 kts | 266° |
| 2026-05-06 15:04 | 51.43820 | 12.36792 | 1741 ft | 155 kts | 266° |
| 2026-05-06 15:04 | 51.43744 | 12.35103 | 1541 ft | 149 kts | 266° |
| 2026-05-06 15:04 | 51.43670 | 12.33465 | 1333 ft | 148 kts | 267° |
| 2026-05-06 15:05 | 51.43600 | 12.31827 | 1066 ft | 147 kts | 267° |
| 2026-05-06 15:05 | 51.43521 | 12.30197 | 916 ft | 148 kts | 270° |
| 2026-05-06 15:05 | 51.43477 | 12.29102 | 791 ft | 148 kts | 269° |
| 2026-05-06 15:05 | 51.43373 | 12.26941 | 533 ft | 146 kts | 268° |
| 2026-05-06 15:06 | 51.43301 | 12.25347 | 452 ft | 133 kts | 265° |
| 2026-05-06 15:06 | 51.43244 | 12.24133 | 441 ft | 85 kts | 266° |
| 2026-05-06 15:06 | 51.43210 | 12.23419 | 441 ft | 54 kts | 265° |
| 2026-05-06 15:06 | 51.43164 | 12.22977 | 437 ft | 36 kts | 248° |
| 2026-05-06 15:07 | 51.43055 | 12.22689 | 427 ft | 14 kts | 234° |
| 2026-05-06 15:07 | 51.43017 | 12.22613 | 430 ft | 12 kts | 225° |
| 2026-05-06 15:07 | 51.42943 | 12.22577 | 437 ft | 13 kts | 176° |
| 2026-05-06 15:07 | 51.42859 | 12.22502 | 437 ft | 19 kts | 257° |
| 2026-05-06 15:08 | 51.42845 | 12.22264 | 432 ft | 26 kts | 266° |
| 2026-05-06 15:08 | 51.42823 | 12.21814 | 424 ft | 33 kts | 265° |
| 2026-05-06 15:08 | 51.42811 | 12.21562 | 429 ft | 34 kts | 266° |
| 2026-05-06 15:08 | 51.42785 | 12.21263 | 430 ft | 21 kts | 233° |
| 2026-05-06 15:09 | 51.42661 | 12.21185 | 427 ft | 18 kts | 195° |
| 2026-05-06 15:09 | 51.42546 | 12.21135 | 431 ft | 17 kts | 195° |
| 2026-05-06 15:09 | 51.42415 | 12.21077 | 431 ft | 24 kts | 195° |
| 2026-05-06 15:09 | 51.42218 | 12.20994 | 428 ft | 34 kts | 195° |
| 2026-05-06 15:10 | 51.42027 | 12.20929 | 425 ft | 21 kts | 169° |
| 2026-05-06 15:10 | 51.41965 | 12.21105 | 420 ft | 19 kts | 105° |
| 2026-05-06 15:10 | 51.41931 | 12.21304 | 429 ft | 18 kts | 105° |
| 2026-05-06 15:10 | 51.41899 | 12.21496 | 430 ft | 18 kts | 105° |
| 2026-05-06 15:11 | 51.41864 | 12.21704 | 427 ft | 22 kts | 105° |
| 2026-05-06 15:11 | 51.41883 | 12.21858 | 433 ft | 13 kts | 16° |
| 2026-05-06 15:11 | 51.41935 | 12.21880 | 436 ft | 0 kts | 15° |